sensor_id;sensor_type;location;lat;lon;timestamp;temperature;humidity
20650;DHT22;10484;48.736;9.332;2023-02-23T00:00:14;8.90;1.00
20650;DHT22;10484;48.736;9.332;2023-02-23T00:02:48;8.90;1.00
20650;DHT22;10484;48.736;9.332;2023-02-23T00:05:15;8.90;1.00
20650;DHT22;10484;48.736;9.332;2023-02-23T00:07:44;8.90;1.00
20650;DHT22;10484;48.736;9.332;2023-02-23T00:10:12;8.90;1.00
20650;DHT22;10484;48.736;9.332;2023-02-23T00:12:39;8.90;1.00
20650;DHT22;10484;48.736;9.332;2023-02-23T00:15:05;8.90;1.00
20650;DHT22;10484;48.736;9.332;2023-02-23T00:17:32;8.90;1.00
20650;DHT22;10484;48.736;9.332;2023-02-23T00:19:58;8.80;1.00
20650;DHT22;10484;48.736;9.332;2023-02-23T00:22:24;8.90;1.00
20650;DHT22;10484;48.736;9.332;2023-02-23T00:24:50;8.80;1.00
20650;DHT22;10484;48.736;9.332;2023-02-23T00:27:15;8.80;1.00
20650;DHT22;10484;48.736;9.332;2023-02-23T00:29:46;8.80;1.00
20650;DHT22;10484;48.736;9.332;2023-02-23T00:32:14;8.80;1.00
20650;DHT22;10484;48.736;9.332;2023-02-23T00:34:46;8.80;1.00
20650;DHT22;10484;48.736;9.332;2023-02-23T00:37:17;8.80;1.00
20650;DHT22;10484;48.736;9.332;2023-02-23T00:39:42;8.80;1.00
20650;DHT22;10484;48.736;9.332;2023-02-23T00:42:09;8.80;1.00
20650;DHT22;10484;48.736;9.332;2023-02-23T00:44:35;8.80;1.00
20650;DHT22;10484;48.736;9.332;2023-02-23T00:47:05;8.80;1.00
20650;DHT22;10484;48.736;9.332;2023-02-23T00:49:31;8.80;1.00
20650;DHT22;10484;48.736;9.332;2023-02-23T00:51:57;8.80;1.00
20650;DHT22;10484;48.736;9.332;2023-02-23T00:54:22;8.80;1.00
20650;DHT22;10484;48.736;9.332;2023-02-23T00:56:48;8.80;1.00
20650;DHT22;10484;48.736;9.332;2023-02-23T00:59:14;8.80;1.00
20650;DHT22;10484;48.736;9.332;2023-02-23T01:01:42;8.80;1.00
20650;DHT22;10484;48.736;9.332;2023-02-23T01:04:08;8.80;1.00
20650;DHT22;10484;48.736;9.332;2023-02-23T01:06:35;8.70;1.00
20650;DHT22;10484;48.736;9.332;2023-02-23T01:09:13;8.70;1.00
20650;DHT22;10484;48.736;9.332;2023-02-23T01:11:40;8.70;1.00
20650;DHT22;10484;48.736;9.332;2023-02-23T01:14:07;8.80;1.00
20650;DHT22;10484;48.736;9.332;2023-02-23T01:16:33;8.70;1.00
20650;DHT22;10484;48.736;9.332;2023-02-23T01:19:02;8.60;1.00
20650;DHT22;10484;48.736;9.332;2023-02-23T01:21:29;8.60;1.00
20650;DHT22;10484;48.736;9.332;2023-02-23T01:23:55;8.60;1.00
20650;DHT22;10484;48.736;9.332;2023-02-23T01:26:22;8.60;1.00
20650;DHT22;10484;48.736;9.332;2023-02-23T01:28:52;8.70;1.00
20650;DHT22;10484;48.736;9.332;2023-02-23T01:31:18;8.70;1.00
20650;DHT22;10484;48.736;9.332;2023-02-23T01:33:44;8.70;1.00
20650;DHT22;10484;48.736;9.332;2023-02-23T01:36:10;8.70;1.00
20650;DHT22;10484;48.736;9.332;2023-02-23T01:38:37;8.70;1.00
20650;DHT22;10484;48.736;9.332;2023-02-23T01:41:03;8.70;1.00
20650;DHT22;10484;48.736;9.332;2023-02-23T01:43:28;8.70;1.00
20650;DHT22;10484;48.736;9.332;2023-02-23T01:45:56;8.70;1.00
20650;DHT22;10484;48.736;9.332;2023-02-23T01:48:34;8.70;1.00
20650;DHT22;10484;48.736;9.332;2023-02-23T01:51:06;8.70;1.00
20650;DHT22;10484;48.736;9.332;2023-02-23T01:53:36;8.70;1.00
20650;DHT22;10484;48.736;9.332;2023-02-23T01:56:07;8.60;1.00
20650;DHT22;10484;48.736;9.332;2023-02-23T01:58:42;8.60;1.00
20650;DHT22;10484;48.736;9.332;2023-02-23T02:01:10;8.60;1.00
20650;DHT22;10484;48.736;9.332;2023-02-23T02:03:47;8.60;1.00
20650;DHT22;10484;48.736;9.332;2023-02-23T02:06:16;8.60;1.00
20650;DHT22;10484;48.736;9.332;2023-02-23T02:08:48;8.60;1.00
20650;DHT22;10484;48.736;9.332;2023-02-23T02:11:23;8.60;1.00
20650;DHT22;10484;48.736;9.332;2023-02-23T02:25:35;8.60;1.00
20650;DHT22;10484;48.736;9.332;2023-02-23T02:39:52;8.50;1.00
20650;DHT22;10484;48.736;9.332;2023-02-23T02:42:35;8.50;1.00
20650;DHT22;10484;48.736;9.332;2023-02-23T02:45:29;8.50;1.00
20650;DHT22;10484;48.736;9.332;2023-02-23T02:48:23;8.50;1.00
20650;DHT22;10484;48.736;9.332;2023-02-23T02:50:56;8.50;1.00
20650;DHT22;10484;48.736;9.332;2023-02-23T02:53:38;8.50;1.00
20650;DHT22;10484;48.736;9.332;2023-02-23T02:56:07;8.40;1.00
20650;DHT22;10484;48.736;9.332;2023-02-23T02:58:33;8.50;1.00
20650;DHT22;10484;48.736;9.332;2023-02-23T03:01:11;8.40;1.00
20650;DHT22;10484;48.736;9.332;2023-02-23T03:03:55;8.40;1.00
20650;DHT22;10484;48.736;9.332;2023-02-23T03:06:54;8.40;1.00
20650;DHT22;10484;48.736;9.332;2023-02-23T03:09:46;8.40;1.00
20650;DHT22;10484;48.736;9.332;2023-02-23T03:12:56;8.40;1.00
20650;DHT22;10484;48.736;9.332;2023-02-23T03:16:25;8.40;1.00
20650;DHT22;10484;48.736;9.332;2023-02-23T03:19:21;8.40;1.00
20650;DHT22;10484;48.736;9.332;2023-02-23T03:22:31;8.40;1.00
20650;DHT22;10484;48.736;9.332;2023-02-23T03:25:28;8.40;1.00
20650;DHT22;10484;48.736;9.332;2023-02-23T03:28:18;8.40;1.00
20650;DHT22;10484;48.736;9.332;2023-02-23T03:31:34;8.40;1.00
20650;DHT22;10484;48.736;9.332;2023-02-23T03:34:52;8.40;1.00
20650;DHT22;10484;48.736;9.332;2023-02-23T03:37:46;8.40;1.00
20650;DHT22;10484;48.736;9.332;2023-02-23T03:40:37;8.40;1.00
20650;DHT22;10484;48.736;9.332;2023-02-23T03:43:27;8.40;1.00
20650;DHT22;10484;48.736;9.332;2023-02-23T03:46:14;8.40;1.00
20650;DHT22;10484;48.736;9.332;2023-02-23T03:49:01;8.40;1.00
20650;DHT22;10484;48.736;9.332;2023-02-23T03:51:50;8.30;1.00
20650;DHT22;10484;48.736;9.332;2023-02-23T03:54:44;8.30;1.00
20650;DHT22;10484;48.736;9.332;2023-02-23T03:57:32;8.30;1.00
20650;DHT22;10484;48.736;9.332;2023-02-23T04:00:25;8.30;1.00
20650;DHT22;10484;48.736;9.332;2023-02-23T04:03:11;8.30;1.00
20650;DHT22;10484;48.736;9.332;2023-02-23T04:05:58;8.30;1.00
20650;DHT22;10484;48.736;9.332;2023-02-23T04:08:44;8.30;1.00
20650;DHT22;10484;48.736;9.332;2023-02-23T04:11:42;8.30;1.00
20650;DHT22;10484;48.736;9.332;2023-02-23T04:14:44;8.30;1.00
20650;DHT22;10484;48.736;9.332;2023-02-23T04:17:13;8.30;1.00
20650;DHT22;10484;48.736;9.332;2023-02-23T04:19:49;8.30;1.00
20650;DHT22;10484;48.736;9.332;2023-02-23T04:22:14;8.30;1.00
20650;DHT22;10484;48.736;9.332;2023-02-23T04:24:40;8.30;1.00
20650;DHT22;10484;48.736;9.332;2023-02-23T04:27:05;8.20;1.00
20650;DHT22;10484;48.736;9.332;2023-02-23T04:29:31;8.30;1.00
20650;DHT22;10484;48.736;9.332;2023-02-23T04:31:56;8.30;1.00
20650;DHT22;10484;48.736;9.332;2023-02-23T04:34:22;8.30;1.00
20650;DHT22;10484;48.736;9.332;2023-02-23T04:36:48;8.30;1.00
20650;DHT22;10484;48.736;9.332;2023-02-23T04:39:15;8.30;1.00
20650;DHT22;10484;48.736;9.332;2023-02-23T04:41:41;8.30;1.00
20650;DHT22;10484;48.736;9.332;2023-02-23T04:44:06;8.30;1.00
20650;DHT22;10484;48.736;9.332;2023-02-23T04:46:32;8.30;1.00
20650;DHT22;10484;48.736;9.332;2023-02-23T04:48:58;8.30;1.00
20650;DHT22;10484;48.736;9.332;2023-02-23T04:51:23;8.30;1.00
20650;DHT22;10484;48.736;9.332;2023-02-23T04:53:55;8.30;1.00
20650;DHT22;10484;48.736;9.332;2023-02-23T04:56:20;8.30;1.00
20650;DHT22;10484;48.736;9.332;2023-02-23T04:58:46;8.30;1.00
20650;DHT22;10484;48.736;9.332;2023-02-23T05:01:11;8.30;1.00
20650;DHT22;10484;48.736;9.332;2023-02-23T05:03:37;8.30;1.00
20650;DHT22;10484;48.736;9.332;2023-02-23T05:06:03;8.40;1.00
20650;DHT22;10484;48.736;9.332;2023-02-23T05:08:29;8.40;1.00
20650;DHT22;10484;48.736;9.332;2023-02-23T05:10:54;8.40;1.00
20650;DHT22;10484;48.736;9.332;2023-02-23T05:13:20;8.40;1.00
20650;DHT22;10484;48.736;9.332;2023-02-23T05:15:46;8.40;1.00
20650;DHT22;10484;48.736;9.332;2023-02-23T05:18:11;8.40;1.00
20650;DHT22;10484;48.736;9.332;2023-02-23T05:20:37;8.40;1.00
20650;DHT22;10484;48.736;9.332;2023-02-23T05:23:02;8.40;1.00
20650;DHT22;10484;48.736;9.332;2023-02-23T05:25:28;8.30;1.00
20650;DHT22;10484;48.736;9.332;2023-02-23T05:27:54;8.30;1.00
20650;DHT22;10484;48.736;9.332;2023-02-23T05:30:19;8.30;1.00
20650;DHT22;10484;48.736;9.332;2023-02-23T05:32:45;8.30;1.00
20650;DHT22;10484;48.736;9.332;2023-02-23T05:35:10;8.30;1.00
20650;DHT22;10484;48.736;9.332;2023-02-23T05:37:37;8.30;1.00
20650;DHT22;10484;48.736;9.332;2023-02-23T05:40:03;8.30;1.00
20650;DHT22;10484;48.736;9.332;2023-02-23T05:42:29;8.30;1.00
20650;DHT22;10484;48.736;9.332;2023-02-23T05:44:54;8.30;1.00
20650;DHT22;10484;48.736;9.332;2023-02-23T05:47:20;8.20;1.00
20650;DHT22;10484;48.736;9.332;2023-02-23T05:49:45;8.20;1.00
20650;DHT22;10484;48.736;9.332;2023-02-23T05:52:11;8.20;1.00
20650;DHT22;10484;48.736;9.332;2023-02-23T05:54:37;8.20;1.00
20650;DHT22;10484;48.736;9.332;2023-02-23T05:57:02;8.20;1.00
20650;DHT22;10484;48.736;9.332;2023-02-23T05:59:28;8.20;1.00
20650;DHT22;10484;48.736;9.332;2023-02-23T06:01:53;8.20;1.00
20650;DHT22;10484;48.736;9.332;2023-02-23T06:04:19;8.20;1.00
20650;DHT22;10484;48.736;9.332;2023-02-23T06:06:46;8.20;1.00
20650;DHT22;10484;48.736;9.332;2023-02-23T06:09:11;8.20;1.00
20650;DHT22;10484;48.736;9.332;2023-02-23T06:11:37;8.20;1.00
20650;DHT22;10484;48.736;9.332;2023-02-23T06:14:02;8.20;1.00
20650;DHT22;10484;48.736;9.332;2023-02-23T06:16:28;8.20;1.00
20650;DHT22;10484;48.736;9.332;2023-02-23T06:18:54;8.20;1.00
20650;DHT22;10484;48.736;9.332;2023-02-23T06:21:19;8.20;1.00
20650;DHT22;10484;48.736;9.332;2023-02-23T06:23:45;8.20;1.00
20650;DHT22;10484;48.736;9.332;2023-02-23T06:26:11;8.20;1.00
20650;DHT22;10484;48.736;9.332;2023-02-23T06:28:36;8.20;1.00
20650;DHT22;10484;48.736;9.332;2023-02-23T06:31:02;8.20;1.00
20650;DHT22;10484;48.736;9.332;2023-02-23T06:33:28;8.20;1.00
20650;DHT22;10484;48.736;9.332;2023-02-23T06:35:53;8.20;1.00
20650;DHT22;10484;48.736;9.332;2023-02-23T06:38:20;8.20;1.00
20650;DHT22;10484;48.736;9.332;2023-02-23T06:40:46;8.20;1.00
20650;DHT22;10484;48.736;9.332;2023-02-23T06:43:11;8.20;1.00
20650;DHT22;10484;48.736;9.332;2023-02-23T06:45:37;8.10;1.00
20650;DHT22;10484;48.736;9.332;2023-02-23T06:48:02;8.10;1.00
20650;DHT22;10484;48.736;9.332;2023-02-23T06:50:28;8.20;1.00
20650;DHT22;10484;48.736;9.332;2023-02-23T06:52:54;8.20;1.00
20650;DHT22;10484;48.736;9.332;2023-02-23T06:55:23;8.10;1.00
20650;DHT22;10484;48.736;9.332;2023-02-23T06:57:49;8.10;1.00
20650;DHT22;10484;48.736;9.332;2023-02-23T07:00:16;8.10;1.00
20650;DHT22;10484;48.736;9.332;2023-02-23T07:02:42;8.10;1.00
20650;DHT22;10484;48.736;9.332;2023-02-23T07:05:09;8.10;1.00
20650;DHT22;10484;48.736;9.332;2023-02-23T07:07:35;8.10;1.00
20650;DHT22;10484;48.736;9.332;2023-02-23T07:10:01;8.10;1.00
20650;DHT22;10484;48.736;9.332;2023-02-23T07:12:27;8.10;1.00
20650;DHT22;10484;48.736;9.332;2023-02-23T07:14:52;8.10;1.00
20650;DHT22;10484;48.736;9.332;2023-02-23T07:17:18;8.10;1.00
20650;DHT22;10484;48.736;9.332;2023-02-23T07:19:43;8.10;1.00
20650;DHT22;10484;48.736;9.332;2023-02-23T07:22:09;8.10;1.00
20650;DHT22;10484;48.736;9.332;2023-02-23T07:24:35;8.10;1.00
20650;DHT22;10484;48.736;9.332;2023-02-23T07:27:00;8.20;1.00
20650;DHT22;10484;48.736;9.332;2023-02-23T07:29:26;8.20;1.00
20650;DHT22;10484;48.736;9.332;2023-02-23T07:31:54;8.10;1.00
20650;DHT22;10484;48.736;9.332;2023-02-23T07:34:20;8.20;1.00
20650;DHT22;10484;48.736;9.332;2023-02-23T07:36:46;8.20;1.00
20650;DHT22;10484;48.736;9.332;2023-02-23T07:39:12;8.20;1.00
20650;DHT22;10484;48.736;9.332;2023-02-23T07:41:37;8.20;1.00
20650;DHT22;10484;48.736;9.332;2023-02-23T07:44:03;8.20;1.00
20650;DHT22;10484;48.736;9.332;2023-02-23T07:46:29;8.20;1.00
20650;DHT22;10484;48.736;9.332;2023-02-23T07:48:55;8.20;1.00
20650;DHT22;10484;48.736;9.332;2023-02-23T07:51:20;8.20;1.00
20650;DHT22;10484;48.736;9.332;2023-02-23T07:53:46;8.20;1.00
20650;DHT22;10484;48.736;9.332;2023-02-23T07:56:12;8.20;1.00
20650;DHT22;10484;48.736;9.332;2023-02-23T07:58:39;8.20;1.00
20650;DHT22;10484;48.736;9.332;2023-02-23T08:01:05;8.20;1.00
20650;DHT22;10484;48.736;9.332;2023-02-23T08:03:31;8.20;1.00
20650;DHT22;10484;48.736;9.332;2023-02-23T08:05:56;8.20;1.00
20650;DHT22;10484;48.736;9.332;2023-02-23T08:08:22;8.20;1.00
20650;DHT22;10484;48.736;9.332;2023-02-23T08:10:47;8.30;1.00
20650;DHT22;10484;48.736;9.332;2023-02-23T08:13:14;8.30;1.00
20650;DHT22;10484;48.736;9.332;2023-02-23T08:15:40;8.30;1.00
20650;DHT22;10484;48.736;9.332;2023-02-23T08:18:06;8.30;1.00
20650;DHT22;10484;48.736;9.332;2023-02-23T08:20:32;8.30;1.00
20650;DHT22;10484;48.736;9.332;2023-02-23T08:22:57;8.40;1.00
20650;DHT22;10484;48.736;9.332;2023-02-23T08:25:24;8.40;1.00
20650;DHT22;10484;48.736;9.332;2023-02-23T08:27:52;8.40;1.00
20650;DHT22;10484;48.736;9.332;2023-02-23T08:30:22;8.40;1.00
20650;DHT22;10484;48.736;9.332;2023-02-23T08:32:47;8.40;1.00
20650;DHT22;10484;48.736;9.332;2023-02-23T08:35:13;8.40;1.00
20650;DHT22;10484;48.736;9.332;2023-02-23T08:37:39;8.40;1.00
20650;DHT22;10484;48.736;9.332;2023-02-23T08:40:07;8.50;1.00
20650;DHT22;10484;48.736;9.332;2023-02-23T08:42:32;8.50;1.00
20650;DHT22;10484;48.736;9.332;2023-02-23T08:44:58;8.50;1.00
20650;DHT22;10484;48.736;9.332;2023-02-23T08:47:26;8.50;1.00
20650;DHT22;10484;48.736;9.332;2023-02-23T08:49:51;8.60;1.00
20650;DHT22;10484;48.736;9.332;2023-02-23T08:52:19;8.60;1.00
20650;DHT22;10484;48.736;9.332;2023-02-23T08:54:45;8.60;1.00
20650;DHT22;10484;48.736;9.332;2023-02-23T08:57:11;8.70;1.00
20650;DHT22;10484;48.736;9.332;2023-02-23T08:59:37;8.70;1.00
20650;DHT22;10484;48.736;9.332;2023-02-23T09:02:04;8.70;1.00
20650;DHT22;10484;48.736;9.332;2023-02-23T09:04:33;8.70;1.00
20650;DHT22;10484;48.736;9.332;2023-02-23T09:07:03;8.70;1.00
20650;DHT22;10484;48.736;9.332;2023-02-23T09:09:29;8.70;1.00
20650;DHT22;10484;48.736;9.332;2023-02-23T09:11:54;8.80;1.00
20650;DHT22;10484;48.736;9.332;2023-02-23T09:14:20;8.80;1.00
20650;DHT22;10484;48.736;9.332;2023-02-23T09:16:46;8.80;1.00
20650;DHT22;10484;48.736;9.332;2023-02-23T09:19:12;8.80;1.00
20650;DHT22;10484;48.736;9.332;2023-02-23T09:21:38;8.90;1.00
20650;DHT22;10484;48.736;9.332;2023-02-23T09:24:04;8.90;1.00
20650;DHT22;10484;48.736;9.332;2023-02-23T09:26:31;8.90;1.00
20650;DHT22;10484;48.736;9.332;2023-02-23T09:28:58;8.90;1.00
20650;DHT22;10484;48.736;9.332;2023-02-23T09:31:24;9.00;1.00
20650;DHT22;10484;48.736;9.332;2023-02-23T09:33:50;9.00;1.00
20650;DHT22;10484;48.736;9.332;2023-02-23T09:36:19;9.00;1.00
20650;DHT22;10484;48.736;9.332;2023-02-23T09:38:48;9.00;1.00
20650;DHT22;10484;48.736;9.332;2023-02-23T09:44:08;9.10;1.00
20650;DHT22;10484;48.736;9.332;2023-02-23T09:46:48;9.10;1.00
20650;DHT22;10484;48.736;9.332;2023-02-23T09:49:21;9.10;1.00
20650;DHT22;10484;48.736;9.332;2023-02-23T09:51:50;9.20;1.00
20650;DHT22;10484;48.736;9.332;2023-02-23T09:54:21;9.20;1.00
20650;DHT22;10484;48.736;9.332;2023-02-23T09:56:49;9.20;1.00
20650;DHT22;10484;48.736;9.332;2023-02-23T09:59:19;9.20;1.00
20650;DHT22;10484;48.736;9.332;2023-02-23T10:07:17;9.30;1.00
20650;DHT22;10484;48.736;9.332;2023-02-23T10:10:01;9.40;1.00
20650;DHT22;10484;48.736;9.332;2023-02-23T10:12:41;9.40;1.00
20650;DHT22;10484;48.736;9.332;2023-02-23T10:20:57;9.60;1.00
20650;DHT22;10484;48.736;9.332;2023-02-23T10:26:26;9.60;1.00
20650;DHT22;10484;48.736;9.332;2023-02-23T10:28:57;9.70;1.00
20650;DHT22;10484;48.736;9.332;2023-02-23T10:31:42;9.70;1.00
20650;DHT22;10484;48.736;9.332;2023-02-23T10:34:14;9.80;1.00
20650;DHT22;10484;48.736;9.332;2023-02-23T10:39:12;9.90;1.00
20650;DHT22;10484;48.736;9.332;2023-02-23T10:41:38;9.90;1.00
20650;DHT22;10484;48.736;9.332;2023-02-23T10:44:05;10.00;1.00
20650;DHT22;10484;48.736;9.332;2023-02-23T10:46:39;10.00;1.00
20650;DHT22;10484;48.736;9.332;2023-02-23T10:49:06;10.10;1.00
20650;DHT22;10484;48.736;9.332;2023-02-23T10:51:37;10.10;1.00
20650;DHT22;10484;48.736;9.332;2023-02-23T10:54:33;10.20;1.00
20650;DHT22;10484;48.736;9.332;2023-02-23T10:56:59;10.20;1.00
20650;DHT22;10484;48.736;9.332;2023-02-23T10:59:24;10.20;1.00
20650;DHT22;10484;48.736;9.332;2023-02-23T11:01:51;10.30;1.00
20650;DHT22;10484;48.736;9.332;2023-02-23T11:04:25;10.40;1.00
20650;DHT22;10484;48.736;9.332;2023-02-23T11:07:20;10.40;1.00
20650;DHT22;10484;48.736;9.332;2023-02-23T11:09:46;10.50;1.00
20650;DHT22;10484;48.736;9.332;2023-02-23T11:12:23;10.50;1.00
20650;DHT22;10484;48.736;9.332;2023-02-23T11:14:55;10.60;1.00
20650;DHT22;10484;48.736;9.332;2023-02-23T11:17:34;10.60;1.00
20650;DHT22;10484;48.736;9.332;2023-02-23T11:20:37;10.70;1.00
20650;DHT22;10484;48.736;9.332;2023-02-23T11:23:22;10.70;1.00
20650;DHT22;10484;48.736;9.332;2023-02-23T11:25:51;10.80;1.00
20650;DHT22;10484;48.736;9.332;2023-02-23T11:28:39;10.90;1.00
20650;DHT22;10484;48.736;9.332;2023-02-23T11:31:15;10.90;1.00
20650;DHT22;10484;48.736;9.332;2023-02-23T11:33:41;10.90;1.00
20650;DHT22;10484;48.736;9.332;2023-02-23T11:36:26;11.00;1.00
20650;DHT22;10484;48.736;9.332;2023-02-23T11:41:33;11.10;1.00
20650;DHT22;10484;48.736;9.332;2023-02-23T11:44:00;11.20;1.00
20650;DHT22;10484;48.736;9.332;2023-02-23T11:46:28;11.20;1.00
20650;DHT22;10484;48.736;9.332;2023-02-23T11:49:00;11.30;1.00
20650;DHT22;10484;48.736;9.332;2023-02-23T11:51:31;11.40;1.00
20650;DHT22;10484;48.736;9.332;2023-02-23T11:53:58;11.40;1.00
20650;DHT22;10484;48.736;9.332;2023-02-23T11:56:25;11.50;1.00
20650;DHT22;10484;48.736;9.332;2023-02-23T11:58:53;11.50;1.00
20650;DHT22;10484;48.736;9.332;2023-02-23T12:01:35;11.50;1.00
20650;DHT22;10484;48.736;9.332;2023-02-23T12:04:02;11.60;1.00
20650;DHT22;10484;48.736;9.332;2023-02-23T12:06:31;11.70;1.00
20650;DHT22;10484;48.736;9.332;2023-02-23T12:11:34;11.70;1.00
20650;DHT22;10484;48.736;9.332;2023-02-23T12:14:08;11.80;1.00
20650;DHT22;10484;48.736;9.332;2023-02-23T12:16:43;11.80;1.00
20650;DHT22;10484;48.736;9.332;2023-02-23T12:19:27;11.80;1.00
20650;DHT22;10484;48.736;9.332;2023-02-23T12:22:02;11.90;1.00
20650;DHT22;10484;48.736;9.332;2023-02-23T12:30:22;12.10;1.00
20650;DHT22;10484;48.736;9.332;2023-02-23T12:35:45;12.10;1.00
20650;DHT22;10484;48.736;9.332;2023-02-23T12:41:17;12.20;1.00
20650;DHT22;10484;48.736;9.332;2023-02-23T12:43:56;12.30;1.00
20650;DHT22;10484;48.736;9.332;2023-02-23T12:46:29;12.30;1.00
20650;DHT22;10484;48.736;9.332;2023-02-23T12:49:15;12.40;1.00
20650;DHT22;10484;48.736;9.332;2023-02-23T12:51:44;12.40;1.00
20650;DHT22;10484;48.736;9.332;2023-02-23T12:54:16;12.50;1.00
20650;DHT22;10484;48.736;9.332;2023-02-23T13:05:36;12.70;1.00
20650;DHT22;10484;48.736;9.332;2023-02-23T13:08:38;12.70;1.00
20650;DHT22;10484;48.736;9.332;2023-02-23T13:13:56;12.80;1.00
20650;DHT22;10484;48.736;9.332;2023-02-23T13:16:34;12.80;1.00
20650;DHT22;10484;48.736;9.332;2023-02-23T13:19:16;12.80;1.00
20650;DHT22;10484;48.736;9.332;2023-02-23T13:24:48;12.90;1.00
20650;DHT22;10484;48.736;9.332;2023-02-23T13:27:36;12.90;1.00
20650;DHT22;10484;48.736;9.332;2023-02-23T13:30:09;12.80;1.00
20650;DHT22;10484;48.736;9.332;2023-02-23T13:32:35;12.80;1.00
20650;DHT22;10484;48.736;9.332;2023-02-23T13:35:20;12.70;1.00
20650;DHT22;10484;48.736;9.332;2023-02-23T13:37:54;12.70;1.00
20650;DHT22;10484;48.736;9.332;2023-02-23T13:46:14;12.80;1.00
20650;DHT22;10484;48.736;9.332;2023-02-23T13:56:48;12.80;1.00
20650;DHT22;10484;48.736;9.332;2023-02-23T13:59:24;12.80;1.00
20650;DHT22;10484;48.736;9.332;2023-02-23T14:01:52;12.80;1.00
20650;DHT22;10484;48.736;9.332;2023-02-23T14:04:23;12.80;1.00
20650;DHT22;10484;48.736;9.332;2023-02-23T14:06:54;12.80;1.00
20650;DHT22;10484;48.736;9.332;2023-02-23T14:09:28;12.80;1.00
20650;DHT22;10484;48.736;9.332;2023-02-23T14:22:34;12.90;1.00
20650;DHT22;10484;48.736;9.332;2023-02-23T14:28:21;13.00;1.00
20650;DHT22;10484;48.736;9.332;2023-02-23T14:33:35;13.00;1.00
20650;DHT22;10484;48.736;9.332;2023-02-23T14:47:05;13.10;1.00
20650;DHT22;10484;48.736;9.332;2023-02-23T14:49:35;13.10;1.00
20650;DHT22;10484;48.736;9.332;2023-02-23T14:54:39;13.10;1.00
20650;DHT22;10484;48.736;9.332;2023-02-23T14:57:25;13.00;1.00
20650;DHT22;10484;48.736;9.332;2023-02-23T14:59:59;13.00;1.00
20650;DHT22;10484;48.736;9.332;2023-02-23T15:02:26;13.00;1.00
20650;DHT22;10484;48.736;9.332;2023-02-23T15:04:52;12.90;1.00
20650;DHT22;10484;48.736;9.332;2023-02-23T15:07:19;13.00;1.00
20650;DHT22;10484;48.736;9.332;2023-02-23T15:09:50;12.90;1.00
20650;DHT22;10484;48.736;9.332;2023-02-23T15:12:20;12.90;1.00
20650;DHT22;10484;48.736;9.332;2023-02-23T15:14:52;12.90;1.00
20650;DHT22;10484;48.736;9.332;2023-02-23T15:17:20;12.90;1.00
20650;DHT22;10484;48.736;9.332;2023-02-23T15:19:49;12.90;1.00
20650;DHT22;10484;48.736;9.332;2023-02-23T15:22:30;12.90;1.00
20650;DHT22;10484;48.736;9.332;2023-02-23T15:25:02;13.00;1.00
20650;DHT22;10484;48.736;9.332;2023-02-23T15:27:38;13.00;1.00
20650;DHT22;10484;48.736;9.332;2023-02-23T15:32:46;13.00;1.00
20650;DHT22;10484;48.736;9.332;2023-02-23T15:35:12;13.00;1.00
20650;DHT22;10484;48.736;9.332;2023-02-23T15:37:44;13.00;1.00
20650;DHT22;10484;48.736;9.332;2023-02-23T15:40:16;13.00;1.00
20650;DHT22;10484;48.736;9.332;2023-02-23T15:43:01;13.00;1.00
20650;DHT22;10484;48.736;9.332;2023-02-23T15:45:39;13.00;1.00
20650;DHT22;10484;48.736;9.332;2023-02-23T15:48:14;13.00;1.00
20650;DHT22;10484;48.736;9.332;2023-02-23T15:50:44;13.00;1.00
20650;DHT22;10484;48.736;9.332;2023-02-23T15:53:33;13.00;1.00
20650;DHT22;10484;48.736;9.332;2023-02-23T15:56:12;13.00;1.00
20650;DHT22;10484;48.736;9.332;2023-02-23T15:58:47;13.00;1.00
20650;DHT22;10484;48.736;9.332;2023-02-23T16:01:22;13.00;1.00
20650;DHT22;10484;48.736;9.332;2023-02-23T16:04:12;12.90;1.00
20650;DHT22;10484;48.736;9.332;2023-02-23T16:06:51;12.90;1.00
20650;DHT22;10484;48.736;9.332;2023-02-23T16:12:03;13.00;1.00
20650;DHT22;10484;48.736;9.332;2023-02-23T16:14:44;13.00;1.00
20650;DHT22;10484;48.736;9.332;2023-02-23T16:20:26;13.00;1.00
20650;DHT22;10484;48.736;9.332;2023-02-23T16:22:54;12.90;1.00
20650;DHT22;10484;48.736;9.332;2023-02-23T16:25:24;12.90;1.00
20650;DHT22;10484;48.736;9.332;2023-02-23T16:28:02;12.90;1.00
20650;DHT22;10484;48.736;9.332;2023-02-23T16:33:08;12.80;1.00
20650;DHT22;10484;48.736;9.332;2023-02-23T16:35:43;12.80;1.00
20650;DHT22;10484;48.736;9.332;2023-02-23T16:41:02;12.80;1.00
20650;DHT22;10484;48.736;9.332;2023-02-23T16:43:28;12.80;1.00
20650;DHT22;10484;48.736;9.332;2023-02-23T16:45:56;12.80;1.00
20650;DHT22;10484;48.736;9.332;2023-02-23T16:48:22;12.80;1.00
20650;DHT22;10484;48.736;9.332;2023-02-23T16:50:49;12.80;1.00
20650;DHT22;10484;48.736;9.332;2023-02-23T16:53:15;12.80;1.00
20650;DHT22;10484;48.736;9.332;2023-02-23T16:55:52;12.80;1.00
20650;DHT22;10484;48.736;9.332;2023-02-23T16:58:21;12.80;1.00
20650;DHT22;10484;48.736;9.332;2023-02-23T17:00:47;12.80;1.00
20650;DHT22;10484;48.736;9.332;2023-02-23T17:03:25;12.80;1.00
20650;DHT22;10484;48.736;9.332;2023-02-23T17:05:51;12.80;1.00
20650;DHT22;10484;48.736;9.332;2023-02-23T17:08:17;12.80;1.00
20650;DHT22;10484;48.736;9.332;2023-02-23T17:10:45;12.80;1.00
20650;DHT22;10484;48.736;9.332;2023-02-23T17:13:25;12.80;1.00
20650;DHT22;10484;48.736;9.332;2023-02-23T17:15:52;12.80;1.00
20650;DHT22;10484;48.736;9.332;2023-02-23T17:18:26;12.80;1.00
20650;DHT22;10484;48.736;9.332;2023-02-23T17:20:52;12.70;1.00
20650;DHT22;10484;48.736;9.332;2023-02-23T17:23:19;12.70;1.00
20650;DHT22;10484;48.736;9.332;2023-02-23T17:25:45;12.70;1.00
20650;DHT22;10484;48.736;9.332;2023-02-23T17:28:10;12.70;1.00
20650;DHT22;10484;48.736;9.332;2023-02-23T17:30:37;12.70;1.00
20650;DHT22;10484;48.736;9.332;2023-02-23T17:33:04;12.70;1.00
20650;DHT22;10484;48.736;9.332;2023-02-23T17:35:31;12.60;1.00
20650;DHT22;10484;48.736;9.332;2023-02-23T17:38:00;12.60;1.00
20650;DHT22;10484;48.736;9.332;2023-02-23T17:40:27;12.60;1.00
20650;DHT22;10484;48.736;9.332;2023-02-23T17:42:54;12.60;1.00
20650;DHT22;10484;48.736;9.332;2023-02-23T17:45:20;12.50;1.00
20650;DHT22;10484;48.736;9.332;2023-02-23T17:47:47;12.50;1.00
20650;DHT22;10484;48.736;9.332;2023-02-23T17:50:13;12.50;1.00
20650;DHT22;10484;48.736;9.332;2023-02-23T17:52:39;12.50;1.00
20650;DHT22;10484;48.736;9.332;2023-02-23T17:55:05;12.50;1.00
20650;DHT22;10484;48.736;9.332;2023-02-23T17:57:31;12.40;1.00
20650;DHT22;10484;48.736;9.332;2023-02-23T17:59:57;12.40;1.00
20650;DHT22;10484;48.736;9.332;2023-02-23T18:02:23;12.40;1.00
20650;DHT22;10484;48.736;9.332;2023-02-23T18:04:50;12.40;1.00
20650;DHT22;10484;48.736;9.332;2023-02-23T18:07:16;12.40;1.00
20650;DHT22;10484;48.736;9.332;2023-02-23T18:09:43;12.40;1.00
20650;DHT22;10484;48.736;9.332;2023-02-23T18:12:09;12.40;1.00
20650;DHT22;10484;48.736;9.332;2023-02-23T18:14:34;12.40;1.00
20650;DHT22;10484;48.736;9.332;2023-02-23T18:17:03;12.30;1.00
20650;DHT22;10484;48.736;9.332;2023-02-23T18:19:29;12.30;1.00
20650;DHT22;10484;48.736;9.332;2023-02-23T18:21:55;12.30;1.00
20650;DHT22;10484;48.736;9.332;2023-02-23T18:24:25;12.30;1.00
20650;DHT22;10484;48.736;9.332;2023-02-23T18:26:52;12.30;1.00
20650;DHT22;10484;48.736;9.332;2023-02-23T18:29:19;12.20;1.00
20650;DHT22;10484;48.736;9.332;2023-02-23T18:31:45;12.20;1.00